Gassoway, Louisiana
Current Conditions -  °F | °C
As of 3:53 AM on Sunday 23 Nov 2014 (Local Time) from KTVR Reporting Station
Overcast Overcast  
Wind Chill: 62°   Ceiling: 1300
Heat Index: 62°   Visibility: 10mi
Dew Point: 58°   Wind: 18mph
Humidity: 86%   Direction: 150°SSE
Pressure: 29.75"   Gusts: 25mph
Location:  32.8408°N, 91.231°W
Report Text: KTVR 230953Z AUTO 15016G22KT 10SM OVC013 17/14 A2975 RMK AO2 RAE0857 SLP080 P0000 T01670144
Loading
Personal Weather Stations






























Interactive Weather Map New forecast layout! Learn more

10-Day Weather Forecast

Advertisements
Track Severe Weather on mobile